Time;durP1;ratioP1;P1;durP2;ratioP2;P2;SDS_P1;SDS_P2;PMS_P1;PMS_P2;Temp;Humidity;BMP_temperature;BMP_pressure;BME280_temperature;BME280_humidity;BME280_pressure;Samples;Min_cycle;Max_cycle;Signal;HPM_P1;HPM_P2
2023/07/29 00:01:56;;;;;;;;;;;16.30;99.90;;;;;;21007304;28;19916;-84
2023/07/29 00:11:57;;;;;;;;;;;16.30;99.90;;;;;;21012557;28;19921;-84
2023/07/29 00:21:57;;;;;;;;;;;16.30;99.90;;;;;;21016726;23;19946;-76
2023/07/29 00:31:58;;;;;;;;;;;16.30;99.90;;;;;;20963704;28;20430;-76
2023/07/29 00:41:59;;;;;;;;;;;16.30;99.90;;;;;;20911999;28;19967;-75
2023/07/29 00:52:00;;;;;;;;;;;16.20;99.90;;;;;;20912898;28;19920;-76
2023/07/29 01:02:01;;;;;;;;;;;16.40;99.90;;;;;;20911420;28;19913;-76
2023/07/29 01:12:28;;;;;;;;;;;16.40;99.90;;;;;;20882282;28;19917;-75
2023/07/29 01:22:30;;;;;;;;;;;16.40;99.90;;;;;;20806581;28;19923;-76
2023/07/29 01:32:48;;;;;;;;;;;16.40;99.90;;;;;;20884767;28;19917;-76
2023/07/29 01:42:49;;;;;;;;;;;16.40;99.90;;;;;;20880491;28;19917;-75
2023/07/29 01:52:50;;;;;;;;;;;16.40;99.90;;;;;;20870077;28;19979;-75
2023/07/29 02:02:50;;;;;;;;;;;16.30;99.90;;;;;;20905901;28;19913;-77
2023/07/29 02:12:51;;;;;;;;;;;16.40;99.90;;;;;;20902752;28;20397;-75
2023/07/29 02:22:52;;;;;;;;;;;16.40;99.90;;;;;;20928689;28;19917;-76
2023/07/29 02:32:53;;;;;;;;;;;16.40;99.90;;;;;;20906030;28;20108;-75
2023/07/29 02:42:53;;;;;;;;;;;16.40;99.90;;;;;;20902563;28;20379;-75
2023/07/29 02:52:54;;;;;;;;;;;16.40;99.90;;;;;;20904931;28;20314;-75
2023/07/29 03:02:55;;;;;;;;;;;16.40;99.90;;;;;;20920056;28;19916;-77
2023/07/29 03:12:55;;;;;;;;;;;16.50;99.90;;;;;;20919239;28;19916;-75
2023/07/29 03:22:56;;;;;;;;;;;16.50;99.90;;;;;;20918490;28;19960;-76
2023/07/29 03:32:57;;;;;;;;;;;16.50;99.90;;;;;;20917664;28;19924;-75
2023/07/29 03:42:58;;;;;;;;;;;16.40;99.90;;;;;;20916838;28;19912;-76
2023/07/29 03:52:59;;;;;;;;;;;16.20;99.90;;;;;;20916534;28;19985;-75
2023/07/29 04:02:59;;;;;;;;;;;16.00;99.90;;;;;;20932120;28;19913;-75
2023/07/29 04:13:00;;;;;;;;;;;15.90;99.90;;;;;;20913178;28;19952;-75
2023/07/29 04:23:01;;;;;;;;;;;16.00;99.90;;;;;;20914321;28;19960;-74
2023/07/29 04:33:02;;;;;;;;;;;16.20;99.90;;;;;;20946672;28;19917;-75
2023/07/29 04:43:02;;;;;;;;;;;16.30;99.90;;;;;;20913575;28;20287;-74
2023/07/29 04:53:03;;;;;;;;;;;16.30;99.90;;;;;;20912270;28;20014;-75
2023/07/29 05:03:03;;;;;;;;;;;16.40;99.90;;;;;;20911773;28;19924;-75
2023/07/29 05:13:04;;;;;;;;;;;16.50;99.90;;;;;;20909490;28;19916;-75
2023/07/29 05:23:05;;;;;;;;;;;16.60;99.90;;;;;;20908287;28;20268;-76
2023/07/29 05:33:08;;;;;;;;;;;16.80;99.90;;;;;;20908240;28;19942;-76
2023/07/29 05:43:09;;;;;;;;;;;16.90;99.90;;;;;;20892061;28;19912;-75
2023/07/29 05:53:09;;;;;;;;;;;17.10;99.90;;;;;;20908280;28;19923;-75
2023/07/29 06:03:11;;;;;;;;;;;17.10;99.90;;;;;;20907673;28;19913;-75
2023/07/29 06:13:11;;;;;;;;;;;17.40;99.90;;;;;;20896267;28;19963;-74
2023/07/29 06:23:12;;;;;;;;;;;17.90;99.90;;;;;;20899090;22;19925;-75
2023/07/29 06:33:13;;;;;;;;;;;18.00;99.90;;;;;;20916517;28;19921;-75
2023/07/29 06:43:13;;;;;;;;;;;18.50;99.90;;;;;;20931021;28;19967;-74
2023/07/29 06:53:14;;;;;;;;;;;19.10;99.90;;;;;;20912889;28;19967;-75
2023/07/29 07:03:15;;;;;;;;;;;19.20;99.90;;;;;;20922610;28;19912;-74
2023/07/29 07:13:15;;;;;;;;;;;19.70;99.90;;;;;;20921051;28;20512;-74
2023/07/29 07:23:16;;;;;;;;;;;20.10;99.90;;;;;;20919662;28;19917;-75
2023/07/29 07:33:17;;;;;;;;;;;21.00;99.90;;;;;;20905583;28;19923;-76
2023/07/29 07:43:17;;;;;;;;;;;20.90;99.90;;;;;;20916675;28;19912;-75
2023/07/29 07:53:19;;;;;;;;;;;21.40;99.90;;;;;;20917972;28;19921;-75
2023/07/29 08:03:20;;;;;;;;;;;22.10;99.90;;;;;;20917244;28;20011;-75
2023/07/29 08:13:21;;;;;;;;;;;22.20;99.90;;;;;;20916574;28;19959;-74
2023/07/29 08:23:22;;;;;;;;;;;22.50;99.90;;;;;;20920033;28;20008;-74
2023/07/29 08:33:22;;;;;;;;;;;22.60;99.90;;;;;;20914328;28;20438;-74
2023/07/29 08:43:28;;;;;;;;;;;23.30;99.90;;;;;;20912647;28;19917;-75
2023/07/29 08:53:29;;;;;;;;;;;23.90;99.90;;;;;;20912830;28;20390;-75
2023/07/29 09:03:30;;;;;;;;;;;24.10;99.90;;;;;;20889611;28;19917;-75
2023/07/29 09:13:30;;;;;;;;;;;24.50;99.90;;;;;;20863508;28;19921;-76
2023/07/29 09:23:50;;;;;;;;;;;25.40;99.90;;;;;;20869164;28;19916;-75
2023/07/29 09:34:00;;;;;;;;;;;26.20;99.90;;;;;;20870256;28;19963;-76
2023/07/29 09:44:03;;;;;;;;;;;26.30;99.90;;;;;;20866729;28;19920;-76
2023/07/29 09:54:04;;;;;;;;;;;25.40;99.90;;;;;;20870007;28;20018;-76
2023/07/29 10:04:05;;;;;;;;;;;25.80;99.90;;;;;;20873161;28;19913;-76
2023/07/29 10:14:06;;;;;;;;;;;25.50;99.90;;;;;;20871086;28;19952;-76
2023/07/29 10:24:11;;;;;;;;;;;25.50;99.90;;;;;;20867103;28;20414;-75
2023/07/29 10:34:12;;;;;;;;;;;25.40;99.90;;;;;;20867589;28;19921;-74
2023/07/29 10:44:31;;;;;;;;;;;26.30;99.90;;;;;;20866193;28;19921;-77
2023/07/29 10:54:42;;;;;;;;;;;26.90;99.90;;;;;;20857239;28;19999;-76
2023/07/29 11:04:46;;;;;;;;;;;26.90;99.90;;;;;;20863338;28;19975;-76
2023/07/29 11:14:47;;;;;;;;;;;25.60;99.90;;;;;;20863422;28;19920;-75
2023/07/29 11:24:47;;;;;;;;;;;26.00;99.90;;;;;;20880698;28;19955;-75
2023/07/29 11:34:48;;;;;;;;;;;26.20;99.90;;;;;;20881423;28;19925;-75
2023/07/29 11:44:48;;;;;;;;;;;26.50;99.90;;;;;;20875321;28;19913;-75
2023/07/29 11:54:49;;;;;;;;;;;25.70;99.90;;;;;;20897224;28;19963;-74
2023/07/29 12:04:50;;;;;;;;;;;25.30;99.90;;;;;;20903846;28;19944;-76
2023/07/29 12:14:51;;;;;;;;;;;25.20;99.90;;;;;;20878533;28;19928;-75
2023/07/29 12:24:53;;;;;;;;;;;25.20;99.90;;;;;;21018588;23;19959;-79
2023/07/29 12:34:53;;;;;;;;;;;25.10;99.90;;;;;;21084082;28;19917;-78
2023/07/29 12:44:54;;;;;;;;;;;25.10;99.90;;;;;;21072499;28;19919;-77
2023/07/29 12:54:55;;;;;;;;;;;22.90;99.90;;;;;;21023644;28;20374;-77
2023/07/29 13:04:55;;;;;;;;;;;21.70;99.90;;;;;;21035944;28;20011;-75
2023/07/29 13:14:56;;;;;;;;;;;21.20;99.90;;;;;;21045584;28;19923;-77
2023/07/29 13:24:57;;;;;;;;;;;20.50;99.90;;;;;;21030094;28;19927;-78
2023/07/29 13:34:57;;;;;;;;;;;20.60;99.90;;;;;;21036524;28;20301;-77
2023/07/29 13:45:00;;;;;;;;;;;20.60;99.90;;;;;;21037490;28;20224;-78
2023/07/29 13:55:01;;;;;;;;;;;20.60;99.90;;;;;;21022558;28;19916;-78
2023/07/29 14:05:01;;;;;;;;;;;20.60;99.90;;;;;;21048369;28;19917;-79
2023/07/29 14:15:03;;;;;;;;;;;20.40;99.90;;;;;;21057266;28;19916;-78
2023/07/29 14:25:03;;;;;;;;;;;20.90;99.90;;;;;;20923135;28;19954;-77
2023/07/29 14:35:04;;;;;;;;;;;21.00;99.90;;;;;;20919579;28;19917;-77
2023/07/29 14:45:05;;;;;;;;;;;20.90;99.90;;;;;;20954723;28;19929;-77
2023/07/29 14:55:06;;;;;;;;;;;21.10;99.90;;;;;;20981714;28;19924;-77
2023/07/29 15:05:07;;;;;;;;;;;20.80;99.90;;;;;;21020566;28;19920;-77
2023/07/29 15:15:08;;;;;;;;;;;20.60;99.90;;;;;;21088598;28;20355;-77
2023/07/29 15:25:09;;;;;;;;;;;20.30;99.90;;;;;;20953811;28;20340;-77
2023/07/29 15:35:10;;;;;;;;;;;19.90;99.90;;;;;;20915199;28;19921;-77
2023/07/29 15:45:11;;;;;;;;;;;19.80;99.90;;;;;;20921977;28;19944;-77
2023/07/29 15:55:12;;;;;;;;;;;19.60;99.90;;;;;;20917244;28;19925;-76
2023/07/29 16:05:13;;;;;;;;;;;19.50;99.90;;;;;;20917337;28;20431;-77
2023/07/29 16:15:13;;;;;;;;;;;19.50;99.90;;;;;;20974023;28;20008;-77
2023/07/29 16:25:14;;;;;;;;;;;19.50;99.90;;;;;;21009001;28;19924;-77
2023/07/29 16:35:16;;;;;;;;;;;19.80;99.90;;;;;;21011059;28;19944;-77
2023/07/29 16:45:16;;;;;;;;;;;19.80;99.90;;;;;;21018718;28;19913;-77
2023/07/29 16:55:17;;;;;;;;;;;20.10;99.90;;;;;;20996745;28;20294;-77
2023/07/29 17:05:18;;;;;;;;;;;20.10;99.90;;;;;;21020059;28;20015;-78
2023/07/29 17:15:18;;;;;;;;;;;20.10;99.90;;;;;;21080594;28;20328;-78
2023/07/29 17:25:20;;;;;;;;;;;20.10;99.90;;;;;;20946244;28;19963;-77
2023/07/29 17:35:21;;;;;;;;;;;20.10;99.90;;;;;;20912579;28;19921;-77
2023/07/29 17:45:21;;;;;;;;;;;20.00;99.90;;;;;;20911407;28;19970;-77
2023/07/29 17:55:22;;;;;;;;;;;20.30;99.90;;;;;;20892032;28;19920;-77
2023/07/29 18:05:23;;;;;;;;;;;20.10;99.90;;;;;;20908598;28;20105;-78
2023/07/29 18:15:24;;;;;;;;;;;20.10;99.90;;;;;;20909727;28;20301;-76
2023/07/29 18:25:25;;;;;;;;;;;20.00;99.90;;;;;;20913580;23;19929;-78
2023/07/29 18:35:25;;;;;;;;;;;19.70;99.90;;;;;;20826404;28;19925;-79
2023/07/29 18:45:29;;;;;;;;;;;19.60;99.90;;;;;;20794218;28;19913;-79
2023/07/29 18:55:29;;;;;;;;;;;19.40;99.90;;;;;;20858898;28;19976;-79
2023/07/29 19:05:30;;;;;;;;;;;18.90;99.90;;;;;;20820685;28;19928;-79
2023/07/29 19:15:30;;;;;;;;;;;18.80;99.90;;;;;;20793585;28;19917;-79
2023/07/29 19:25:31;;;;;;;;;;;18.80;99.90;;;;;;20861707;28;19917;-80
2023/07/29 19:35:32;;;;;;;;;;;18.90;99.90;;;;;;20874591;28;19917;-80
2023/07/29 19:45:32;;;;;;;;;;;18.60;99.90;;;;;;20862189;28;19913;-80
2023/07/29 19:55:33;;;;;;;;;;;18.60;99.90;;;;;;20861916;28;19917;-77
2023/07/29 20:05:33;;;;;;;;;;;18.40;99.90;;;;;;20863500;28;19988;-79
2023/07/29 20:15:34;;;;;;;;;;;18.00;99.90;;;;;;20860142;28;19917;-79
2023/07/29 20:25:35;;;;;;;;;;;18.10;99.90;;;;;;20858299;28;20028;-79
2023/07/29 20:35:35;;;;;;;;;;;18.10;99.90;;;;;;20857345;28;20016;-79
2023/07/29 20:45:36;;;;;;;;;;;18.10;99.90;;;;;;20858412;28;19981;-78
2023/07/29 20:55:37;;;;;;;;;;;18.20;99.90;;;;;;20854956;28;19917;-79
2023/07/29 21:05:37;;;;;;;;;;;18.20;99.90;;;;;;20858462;28;19975;-78
2023/07/29 21:15:38;;;;;;;;;;;17.70;99.90;;;;;;20813432;28;19924;-78
2023/07/29 21:25:39;;;;;;;;;;;17.60;99.90;;;;;;20811679;28;20427;-79
2023/07/29 21:35:40;;;;;;;;;;;17.50;99.90;;;;;;20857596;28;19917;-80
2023/07/29 21:45:40;;;;;;;;;;;17.70;99.90;;;;;;20855108;28;19932;-79
2023/07/29 21:55:41;;;;;;;;;;;17.80;99.90;;;;;;20852702;28;20276;-79
2023/07/29 22:05:41;;;;;;;;;;;17.80;99.90;;;;;;20851565;28;19917;-79
2023/07/29 22:15:42;;;;;;;;;;;17.70;99.90;;;;;;20853930;28;19971;-77
2023/07/29 22:25:43;;;;;;;;;;;17.60;99.90;;;;;;20852095;28;20268;-78
2023/07/29 22:35:43;;;;;;;;;;;17.50;99.90;;;;;;20850586;28;19924;-78
2023/07/29 22:45:51;;;;;;;;;;;17.30;99.90;;;;;;20851321;28;19920;-79
2023/07/29 22:55:52;;;;;;;;;;;17.30;99.90;;;;;;20850901;28;19917;-78
2023/07/29 23:05:53;;;;;;;;;;;16.90;99.90;;;;;;20851056;28;20421;-79
2023/07/29 23:15:53;;;;;;;;;;;16.60;99.90;;;;;;20858566;28;19924;-78
2023/07/29 23:25:54;;;;;;;;;;;16.80;99.90;;;;;;20862991;28;19976;-79
2023/07/29 23:35:58;;;;;;;;;;;16.90;99.90;;;;;;20798382;28;19928;-79
2023/07/29 23:45:59;;;;;;;;;;;17.00;99.90;;;;;;20779895;28;19914;-78
2023/07/29 23:56:00;;;;;;;;;;;16.90;99.90;;;;;;20851388;28;20371;-77
